createdAt,value
2022-08-22T00:02:47.158Z,101600.81
2022-08-22T00:02:49.863Z,101603.16
2022-08-22T00:03:09.862Z,101589.09
2022-08-22T00:06:12.674Z,101580.06
2022-08-22T00:09:06.459Z,101579.63
2022-08-22T00:11:48.435Z,101579.78
2022-08-22T00:14:31.817Z,101579.53
2022-08-22T00:17:17.153Z,101579.94
2022-08-22T00:19:58.485Z,101580.09
2022-08-22T00:22:38.537Z,101573.66
2022-08-22T00:25:27.603Z,101581.25
2022-08-22T00:28:05.210Z,101587.13
2022-08-22T00:30:49.308Z,101585.13
2022-08-22T00:33:29.053Z,101576.75
2022-08-22T00:36:24.176Z,101575.88
2022-08-22T00:39:07.350Z,101582.81
2022-08-22T00:41:50.669Z,101591.19
2022-08-22T00:44:44.976Z,101582.53
2022-08-22T00:47:47.231Z,101581.84
2022-08-22T00:50:42.917Z,101574.66
2022-08-22T00:53:44.177Z,101581.91
2022-08-22T00:56:53.161Z,101580.31
2022-08-22T00:59:42.576Z,101583.59
2022-08-22T01:02:31.837Z,101584.47
2022-08-22T01:05:44.507Z,101586.41
2022-08-22T01:08:35.100Z,101578.91
2022-08-22T01:11:26.323Z,101577.38
2022-08-22T01:14:16.564Z,101576.25
2022-08-22T01:17:09.458Z,101581.47
2022-08-22T01:20:11.583Z,101581.53
2022-08-22T01:23:11.237Z,101579.19
2022-08-22T01:26:17.139Z,101573.63
2022-08-22T01:29:33.327Z,101582.41
2022-08-22T01:32:24.445Z,101586.44
2022-08-22T01:35:16.260Z,101587.22
2022-08-22T01:38:18.096Z,101587.31
2022-08-22T01:41:18.094Z,101586.88
2022-08-22T01:44:09.666Z,101583.28
2022-08-22T01:46:52.594Z,101582.44
2022-08-22T01:49:29.122Z,101585.66
2022-08-22T01:52:10.119Z,101584.44
2022-08-22T01:54:52.202Z,101581.72
2022-08-22T01:57:26.253Z,101584.50
2022-08-22T02:00:05.152Z,101586.44
2022-08-22T02:02:57.777Z,101584.94
2022-08-22T02:05:37.187Z,101580.22
2022-08-22T02:08:23.158Z,101574.19
2022-08-22T02:11:07.132Z,101581.84
2022-08-22T02:13:55.536Z,101562.97
2022-08-22T02:16:36.628Z,101568.25
2022-08-22T02:19:29.525Z,101568.81
2022-08-22T02:22:08.185Z,101573.19
2022-08-22T02:24:52.221Z,101569.19
2022-08-22T02:27:34.773Z,101561.59
2022-08-22T02:30:11.347Z,101570.84
2022-08-22T02:32:54.558Z,101566.03
2022-08-22T02:35:32.232Z,101571.66
2022-08-22T02:38:22.385Z,101559.03
2022-08-22T02:41:08.424Z,101564.94
2022-08-22T02:43:50.580Z,101567.81
2022-08-22T02:46:31.171Z,101560.63
2022-08-22T02:49:12.976Z,101557.50
2022-08-22T02:51:52.960Z,101558.38
2022-08-22T02:54:31.407Z,101557.50
2022-08-22T02:57:14.279Z,101560.72
2022-08-22T03:00:00.103Z,101559.19
2022-08-22T03:02:38.948Z,101550.47
2022-08-22T03:05:24.945Z,101550.56
2022-08-22T03:08:03.362Z,101549.75
2022-08-22T03:10:43.361Z,101553.75
2022-08-22T03:13:26.726Z,101541.16
2022-08-22T03:16:07.768Z,101538.59
2022-08-22T03:18:49.303Z,101529.22
2022-08-22T03:21:30.538Z,101531.56
2022-08-22T03:24:12.798Z,101530.00
2022-08-22T03:26:51.562Z,101528.44
2022-08-22T03:29:30.564Z,101524.41
2022-08-22T03:32:14.528Z,101520.53
2022-08-22T03:34:58.518Z,101519.75
2022-08-22T03:37:41.079Z,101517.03
2022-08-22T03:40:31.528Z,101519.47
2022-08-22T03:43:25.702Z,101512.03
2022-08-22T03:46:38.211Z,101518.00
2022-08-22T03:49:46.832Z,101526.34
2022-08-22T03:52:57.952Z,101528.78
2022-08-22T03:55:40.534Z,101528.22
2022-08-22T03:58:38.289Z,101530.63
2022-08-22T04:01:59.105Z,101543.47
2022-08-22T04:05:09.730Z,101537.97
2022-08-22T04:08:13.060Z,101531.66
2022-08-22T04:11:21.523Z,101527.66
2022-08-22T04:14:28.707Z,101534.53
2022-08-22T04:17:23.251Z,101537.22
2022-08-22T04:20:20.904Z,101540.47
2022-08-22T04:23:27.589Z,101540.53
2022-08-22T04:26:12.104Z,101538.19
2022-08-22T04:28:51.111Z,101543.75
2022-08-22T04:31:28.688Z,101548.22
2022-08-22T04:34:07.283Z,101538.28
2022-08-22T04:36:48.142Z,101545.44
2022-08-22T04:39:29.036Z,101545.03
2022-08-22T04:42:30.805Z,101546.31
2022-08-22T04:45:07.052Z,101548.34
2022-08-22T04:47:43.956Z,101547.22
2022-08-22T04:50:26.226Z,101555.22
2022-08-22T04:53:10.505Z,101546.44
2022-08-22T04:55:52.811Z,101554.72
2022-08-22T04:58:38.747Z,101554.41
2022-08-22T05:01:16.633Z,101569.84
2022-08-22T05:03:57.364Z,101570.25
2022-08-22T05:06:35.229Z,101565.59
2022-08-22T05:09:16.453Z,101573.59
2022-08-22T05:11:53.333Z,101572.03
2022-08-22T05:14:32.227Z,101572.72
2022-08-22T05:17:08.487Z,101572.91
2022-08-22T05:19:46.516Z,101567.34
2022-08-22T05:22:24.214Z,101572.94
2022-08-22T05:25:03.558Z,101561.03
2022-08-22T05:27:42.033Z,101563.41
2022-08-22T05:30:22.278Z,101577.75
2022-08-22T05:33:04.622Z,101563.47
2022-08-22T05:35:40.843Z,101573.75
2022-08-22T05:38:16.960Z,101564.00
2022-08-22T05:40:58.713Z,101573.84
2022-08-22T05:43:37.142Z,101578.63
2022-08-22T05:46:17.503Z,101574.69
2022-08-22T05:48:56.489Z,101583.41
2022-08-22T05:51:37.868Z,101583.03
2022-08-22T05:54:15.812Z,101585.81
2022-08-22T05:56:55.548Z,101583.47
2022-08-22T05:59:32.168Z,101585.81
2022-08-22T06:02:10.572Z,101585.00
2022-08-22T06:04:50.093Z,101583.41
2022-08-22T06:07:27.439Z,101588.19
2022-08-22T06:10:09.687Z,101584.53
2022-08-22T06:12:51.261Z,101593.72
2022-08-22T06:15:30.528Z,101597.72
2022-08-22T06:18:06.298Z,101591.31
2022-08-22T06:20:43.994Z,101592.09
2022-08-22T06:23:23.880Z,101593.31
2022-08-22T06:26:00.697Z,101593.69
2022-08-22T06:28:54.611Z,101591.22
2022-08-22T06:31:31.999Z,101584.13
2022-08-22T06:34:10.165Z,101576.94
2022-08-22T06:36:48.732Z,101579.31
2022-08-22T06:39:24.544Z,101578.97
2022-08-22T06:42:03.357Z,101580.06
2022-08-22T06:44:41.976Z,101580.06
2022-08-22T06:47:19.052Z,101582.03
2022-08-22T06:49:56.436Z,101576.09
2022-08-22T06:52:33.922Z,101576.81
2022-08-22T06:55:10.260Z,101565.69
2022-08-22T06:57:47.470Z,101562.03
2022-08-22T07:00:22.442Z,101560.00
2022-08-22T07:02:58.737Z,101555.56
2022-08-22T07:05:38.355Z,101547.97
2022-08-22T07:08:14.799Z,101546.38
2022-08-22T07:10:56.413Z,101553.84
2022-08-22T07:13:29.268Z,101553.31
2022-08-22T07:16:07.751Z,101552.47
2022-08-22T07:18:50.010Z,101551.16
2022-08-22T07:21:28.921Z,101553.09
2022-08-22T07:24:02.808Z,101548.94
2022-08-22T07:26:42.241Z,101544.38
2022-08-22T07:29:27.764Z,101545.47
2022-08-22T07:32:11.537Z,101546.53
2022-08-22T07:34:58.041Z,101547.19
2022-08-22T07:37:47.014Z,101560.66
2022-08-22T07:40:27.092Z,101556.06
2022-08-22T07:43:06.175Z,101554.22
2022-08-22T07:45:44.422Z,101553.22
2022-08-22T07:48:28.055Z,101550.94
2022-08-22T07:51:05.239Z,101544.31
2022-08-22T07:53:42.590Z,101549.41
2022-08-22T07:56:21.641Z,101551.38
2022-08-22T07:58:59.646Z,101560.81
2022-08-22T08:01:33.327Z,101564.63
2022-08-22T08:04:10.175Z,101563.50
2022-08-22T08:06:43.025Z,101561.31
2022-08-22T08:09:16.998Z,101565.44
2022-08-22T08:11:53.451Z,101562.19
2022-08-22T08:14:27.552Z,101560.28
2022-08-22T08:17:03.964Z,101560.81
2022-08-22T08:19:42.064Z,101549.44
2022-08-22T08:22:18.607Z,101557.91
2022-08-22T08:24:54.970Z,101553.25
2022-08-22T08:27:52.583Z,101545.56
2022-08-22T08:30:36.614Z,101542.47
2022-08-22T08:33:24.803Z,101547.09
2022-08-22T08:36:07.951Z,101544.22
2022-08-22T08:38:48.135Z,101541.38
2022-08-22T08:41:57.938Z,101535.72
2022-08-22T08:44:49.803Z,101533.63
2022-08-22T08:47:36.182Z,101536.19
2022-08-22T08:50:29.083Z,101532.16
2022-08-22T08:53:33.049Z,101541.38
2022-08-22T08:56:16.606Z,101532.84
2022-08-22T08:59:00.200Z,101532.63
2022-08-22T09:01:53.400Z,101532.38
2022-08-22T09:05:04.875Z,101532.56
2022-08-22T09:07:56.913Z,101532.41
2022-08-22T09:10:52.824Z,101524.75
2022-08-22T09:13:42.814Z,101523.59
2022-08-22T09:16:46.202Z,101531.03
2022-08-22T09:19:49.651Z,101523.47
2022-08-22T09:22:50.200Z,101525.09
2022-08-22T09:25:31.996Z,101523.13
2022-08-22T09:28:18.167Z,101525.00
2022-08-22T09:31:16.925Z,101516.53
2022-08-22T09:34:05.956Z,101511.22
2022-08-22T09:36:52.958Z,101518.81
2022-08-22T09:39:39.127Z,101512.19
2022-08-22T09:42:18.548Z,101507.88
2022-08-22T09:45:01.186Z,101503.34
2022-08-22T09:47:40.018Z,101512.78
2022-08-22T09:50:17.614Z,101516.56
2022-08-22T09:53:04.829Z,101506.88
2022-08-22T09:55:43.801Z,101512.97
2022-08-22T09:58:25.779Z,101508.44
2022-08-22T10:01:11.355Z,101503.91
2022-08-22T10:04:28.917Z,101507.16
2022-08-22T10:07:11.692Z,101508.25
2022-08-22T10:09:57.112Z,101508.06
2022-08-22T10:12:36.542Z,101509.88
2022-08-22T10:15:20.252Z,101504.06
2022-08-22T10:18:15.852Z,101506.19
2022-08-22T10:21:00.345Z,101502.88
2022-08-22T10:23:39.570Z,101497.59
2022-08-22T10:26:29.185Z,101499.00
2022-08-22T10:29:08.935Z,101501.69
2022-08-22T10:31:58.865Z,101503.97
2022-08-22T10:34:42.700Z,101495.94
2022-08-22T10:37:24.106Z,101503.00
2022-08-22T10:40:02.682Z,101501.66
2022-08-22T10:42:41.774Z,101502.75
2022-08-22T10:45:35.489Z,101508.94
2022-08-22T10:48:39.728Z,101503.19
2022-08-22T10:51:28.892Z,101502.50
2022-08-22T10:54:19.934Z,101503.47
2022-08-22T10:57:06.649Z,101500.94
2022-08-22T10:59:46.291Z,101499.06
2022-08-22T11:02:36.592Z,101503.63
2022-08-22T11:05:39.475Z,101499.22
2022-08-22T11:08:28.572Z,101500.47
2022-08-22T11:11:21.540Z,101497.53
2022-08-22T11:14:29.024Z,101501.56
2022-08-22T11:17:23.636Z,101501.38
2022-08-22T11:20:19.496Z,101493.25
2022-08-22T11:23:12.888Z,101495.91
2022-08-22T11:25:55.143Z,101495.88
2022-08-22T11:28:41.254Z,101496.69
2022-08-22T11:31:27.500Z,101500.88
2022-08-22T11:34:12.079Z,101498.13
2022-08-22T11:36:51.609Z,101487.31
2022-08-22T11:39:34.983Z,101488.00
2022-08-22T11:42:14.268Z,101487.09
2022-08-22T11:44:53.795Z,101490.44
2022-08-22T11:47:31.559Z,101490.31
2022-08-22T11:50:13.835Z,101490.91
2022-08-22T11:53:07.825Z,101491.00
2022-08-22T11:55:46.549Z,101495.72
2022-08-22T11:58:32.861Z,101493.69
2022-08-22T12:01:17.043Z,101496.34
2022-08-22T12:04:03.495Z,101493.78
2022-08-22T12:06:56.428Z,101489.50
2022-08-22T12:09:38.844Z,101493.47
2022-08-22T12:12:38.464Z,101488.84
2022-08-22T12:15:21.656Z,101476.72
2022-08-22T12:18:31.892Z,101484.03
2022-08-22T12:21:36.858Z,101466.81
2022-08-22T12:24:35.653Z,101473.53
2022-08-22T12:27:37.658Z,101458.06
2022-08-22T12:30:19.964Z,101470.53
2022-08-22T12:33:23.538Z,101462.75
2022-08-22T12:36:19.359Z,101460.72
2022-08-22T12:39:13.393Z,101449.09
2022-08-22T12:42:06.984Z,101448.59
2022-08-22T12:44:55.713Z,101452.47
2022-08-22T12:47:42.191Z,101448.81
2022-08-22T12:50:32.350Z,101440.81
2022-08-22T12:53:25.724Z,101440.50
2022-08-22T12:56:06.274Z,101433.53
2022-08-22T12:59:09.143Z,101426.03
2022-08-22T13:01:45.125Z,101428.81
2022-08-22T13:04:32.427Z,101428.53
2022-08-22T13:07:19.030Z,101428.47
2022-08-22T13:10:01.738Z,101427.44
2022-08-22T13:12:44.331Z,101426.38
2022-08-22T13:15:26.634Z,101422.97
2022-08-22T13:18:19.197Z,101419.03
2022-08-22T13:20:59.236Z,101423.44
2022-08-22T13:23:39.927Z,101417.00
2022-08-22T13:26:34.030Z,101418.19
2022-08-22T13:29:26.156Z,101419.09
2022-08-22T13:32:02.094Z,101414.13
2022-08-22T13:34:43.551Z,101416.19
2022-08-22T13:37:24.789Z,101405.78
2022-08-22T13:40:03.008Z,101405.59
2022-08-22T13:42:47.875Z,101402.47
2022-08-22T13:45:24.878Z,101405.66
2022-08-22T13:48:03.630Z,101393.22
2022-08-22T13:50:54.131Z,101393.41
2022-08-22T13:53:39.217Z,101391.28
2022-08-22T13:56:18.593Z,101392.09
2022-08-22T13:58:55.823Z,101390.09
2022-08-22T14:01:38.828Z,101393.03
2022-08-22T14:04:32.292Z,101391.75
2022-08-22T14:07:28.118Z,101393.81
2022-08-22T14:10:14.937Z,101391.72
2022-08-22T14:13:18.900Z,101391.13
2022-08-22T14:16:00.064Z,101391.13
2022-08-22T14:18:45.667Z,101388.28
2022-08-22T14:21:36.958Z,101388.56
2022-08-22T14:24:19.917Z,101393.22
2022-08-22T14:26:58.391Z,101384.94
2022-08-22T14:29:35.080Z,101385.44
2022-08-22T14:32:35.385Z,101382.88
2022-08-22T14:35:23.063Z,101385.44
2022-08-22T14:38:17.988Z,101383.88
2022-08-22T14:40:54.853Z,101381.34
2022-08-22T14:43:49.280Z,101380.38
2022-08-22T14:46:30.186Z,101374.91
2022-08-22T14:49:28.873Z,101365.59
2022-08-22T14:52:06.779Z,101357.78
2022-08-22T14:54:42.668Z,101361.09
2022-08-22T14:57:20.606Z,101362.88
2022-08-22T14:59:55.295Z,101368.56
2022-08-22T15:02:30.858Z,101358.00
2022-08-22T15:05:15.541Z,101360.78
2022-08-22T15:07:55.839Z,101355.88
2022-08-22T15:10:33.373Z,101347.84
2022-08-22T15:13:10.158Z,101349.69
2022-08-22T15:15:53.484Z,101341.38
2022-08-22T15:18:35.683Z,101343.44
2022-08-22T15:21:11.419Z,101338.19
2022-08-22T15:23:46.969Z,101333.00
2022-08-22T15:26:25.703Z,101327.31
2022-08-22T15:29:07.353Z,101328.28
2022-08-22T15:31:43.599Z,101327.00
2022-08-22T15:34:25.742Z,101329.09
2022-08-22T15:37:29.505Z,101318.53
2022-08-22T15:40:12.673Z,101313.78
2022-08-22T15:42:48.573Z,101316.34
2022-08-22T15:45:33.703Z,101324.13
2022-08-22T15:48:13.773Z,101319.00
2022-08-22T15:51:03.604Z,101316.44
2022-08-22T15:54:02.673Z,101313.63
2022-08-22T15:57:14.211Z,101312.66
2022-08-22T15:59:58.452Z,101310.09
2022-08-22T16:02:35.497Z,101300.59
2022-08-22T16:05:26.316Z,101304.97
2022-08-22T16:08:05.947Z,101302.44
2022-08-22T16:10:42.568Z,101302.19
2022-08-22T16:13:38.282Z,101301.50
2022-08-22T16:16:34.077Z,101297.41
2022-08-22T16:19:20.262Z,101298.00
2022-08-22T16:22:10.629Z,101293.63
2022-08-22T16:25:03.851Z,101294.16
2022-08-22T16:27:38.178Z,101291.59
2022-08-22T16:30:16.280Z,101286.72
2022-08-22T16:32:57.243Z,101287.00
2022-08-22T16:36:22.117Z,101277.69
2022-08-22T16:38:58.380Z,101285.00
2022-08-22T16:41:35.817Z,101283.97
2022-08-22T16:44:34.395Z,101280.38
2022-08-22T16:47:12.784Z,101286.28
2022-08-22T16:50:00.131Z,101276.72
2022-08-22T16:52:57.596Z,101277.28
2022-08-22T16:55:47.574Z,101276.69
2022-08-22T16:59:01.080Z,101274.63
2022-08-22T17:01:56.785Z,101278.97
2022-08-22T17:04:41.032Z,101277.38
2022-08-22T17:07:26.550Z,101272.97
2022-08-22T17:10:12.432Z,101268.78
2022-08-22T17:13:16.369Z,101275.72
2022-08-22T17:16:03.197Z,101273.34
2022-08-22T17:18:49.383Z,101276.66
2022-08-22T17:21:26.681Z,101284.53
2022-08-22T17:24:06.466Z,101280.41
2022-08-22T17:26:53.205Z,101273.06
2022-08-22T17:29:40.740Z,101274.31
2022-08-22T17:32:21.964Z,101268.88
2022-08-22T17:35:05.169Z,101274.97
2022-08-22T17:37:52.828Z,101272.25
2022-08-22T17:40:39.024Z,101273.28
2022-08-22T17:43:27.409Z,101278.00
2022-08-22T17:46:20.543Z,101285.34
2022-08-22T17:49:00.575Z,101279.63
2022-08-22T17:51:41.339Z,101286.50
2022-08-22T17:54:18.896Z,101282.22
2022-08-22T17:57:03.221Z,101286.03
2022-08-22T17:59:48.361Z,101284.41
2022-08-22T18:02:28.049Z,101284.56
2022-08-22T18:05:07.921Z,101277.50
2022-08-22T18:07:56.137Z,101285.66
2022-08-22T18:10:38.945Z,101285.19
2022-08-22T18:13:13.170Z,101288.25
2022-08-22T18:15:51.582Z,101291.00
2022-08-22T18:18:31.716Z,101292.47
2022-08-22T18:21:10.946Z,101291.22
2022-08-22T18:23:46.276Z,101287.97
2022-08-22T18:26:28.390Z,101288.34
2022-08-22T18:29:09.820Z,101287.91
2022-08-22T18:31:51.015Z,101285.84
2022-08-22T18:34:34.174Z,101291.13
2022-08-22T18:37:41.387Z,101292.97
2022-08-22T18:40:26.520Z,101297.56
2022-08-22T18:43:14.099Z,101304.00
2022-08-22T18:46:03.514Z,101308.44
2022-08-22T18:48:49.793Z,101301.91
2022-08-22T18:51:38.271Z,101304.47
2022-08-22T18:54:34.930Z,101301.13
2022-08-22T18:57:30.404Z,101309.97
2022-08-22T19:00:12.677Z,101301.97
2022-08-22T19:03:08.762Z,101316.25
2022-08-22T19:05:52.051Z,101309.56
2022-08-22T19:08:53.420Z,101308.94
2022-08-22T19:11:40.991Z,101313.97
2022-08-22T19:14:28.896Z,101312.94
2022-08-22T19:17:44.640Z,101310.38
2022-08-22T19:20:51.623Z,101310.44
2022-08-22T19:23:47.915Z,101310.31
2022-08-22T19:26:30.435Z,101317.28
2022-08-22T19:29:10.775Z,101314.00
2022-08-22T19:31:50.458Z,101314.63
2022-08-22T19:34:39.665Z,101306.28
2022-08-22T19:37:33.201Z,101314.41
2022-08-22T19:40:10.414Z,101315.38
2022-08-22T19:42:46.791Z,101315.56
2022-08-22T19:45:25.577Z,101317.31
2022-08-22T19:48:02.209Z,101313.75
2022-08-22T19:50:38.516Z,101315.66
2022-08-22T19:53:28.293Z,101318.59
2022-08-22T19:56:20.750Z,101314.53
2022-08-22T19:59:07.227Z,101317.06
2022-08-22T20:01:56.183Z,101317.38
2022-08-22T20:04:44.074Z,101317.41
2022-08-22T20:07:29.284Z,101313.19
2022-08-22T20:10:17.952Z,101308.03
2022-08-22T20:13:04.303Z,101304.94
2022-08-22T20:16:02.585Z,101316.81
2022-08-22T20:19:05.031Z,101316.16
2022-08-22T20:21:46.048Z,101314.31
2022-08-22T20:24:24.502Z,101318.69
2022-08-22T20:27:15.654Z,101311.31
2022-08-22T20:29:56.413Z,101323.03
2022-08-22T20:32:30.904Z,101322.41
2022-08-22T20:35:05.945Z,101316.47
2022-08-22T20:40:55.096Z,101323.66
2022-08-22T20:43:36.402Z,101321.44
2022-08-22T20:46:24.349Z,101323.50
2022-08-22T20:48:57.595Z,101315.34
2022-08-22T20:51:33.499Z,101318.66
2022-08-22T20:54:17.746Z,101318.34
2022-08-22T20:56:53.952Z,101312.56
2022-08-22T20:59:30.899Z,101318.00
2022-08-22T21:02:15.610Z,101317.69
2022-08-22T21:04:54.126Z,101313.78
2022-08-22T21:07:30.411Z,101310.66
2022-08-22T21:10:24.179Z,101322.06
2022-08-22T21:13:24.383Z,101317.66
2022-08-22T21:15:59.784Z,101311.41
2022-08-22T21:18:36.883Z,101308.09
2022-08-22T21:21:12.739Z,101311.03
2022-08-22T21:23:56.373Z,101313.06
2022-08-22T21:26:37.038Z,101312.44
2022-08-22T21:29:22.255Z,101316.31
2022-08-22T21:32:04.310Z,101314.75
2022-08-22T21:34:44.524Z,101301.75
2022-08-22T21:37:23.650Z,101311.25
2022-08-22T21:40:01.950Z,101304.38
2022-08-22T21:42:37.343Z,101314.94
2022-08-22T21:45:14.085Z,101323.06
2022-08-22T21:47:46.841Z,101324.00
2022-08-22T21:50:37.857Z,101317.25
2022-08-22T21:53:13.115Z,101314.72
2022-08-22T21:55:47.973Z,101318.13
2022-08-22T21:58:36.606Z,101317.91
2022-08-22T22:01:31.665Z,101326.59
2022-08-22T22:04:05.025Z,101325.94
2022-08-22T22:06:39.063Z,101318.94
2022-08-22T22:09:15.163Z,101322.31
2022-08-22T22:11:48.122Z,101335.09
2022-08-22T22:14:21.007Z,101342.53
2022-08-22T22:16:53.703Z,101339.88
2022-08-22T22:19:26.425Z,101335.41
2022-08-22T22:22:00.453Z,101333.53
2022-08-22T22:24:33.268Z,101334.78
2022-08-22T22:27:06.657Z,101331.31
2022-08-22T22:29:39.704Z,101331.44
2022-08-22T22:32:12.445Z,101336.38
2022-08-22T22:34:45.079Z,101343.38
2022-08-22T22:37:19.617Z,101339.88
2022-08-22T22:39:52.440Z,101334.41
2022-08-22T22:42:25.137Z,101329.22
2022-08-22T22:44:58.069Z,101343.50
2022-08-22T22:47:31.696Z,101344.41
2022-08-22T22:50:05.600Z,101332.66
2022-08-22T22:52:40.873Z,101335.13
2022-08-22T22:55:24.969Z,101336.50
2022-08-22T22:58:01.028Z,101341.44
2022-08-22T23:00:36.287Z,101333.59
2022-08-22T23:03:09.785Z,101340.44
2022-08-22T23:05:42.983Z,101336.97
2022-08-22T23:08:17.083Z,101328.69
2022-08-22T23:10:49.933Z,101327.22
2022-08-22T23:13:22.726Z,101327.22
2022-08-22T23:15:55.532Z,101332.16
2022-08-22T23:18:30.799Z,101336.31
2022-08-22T23:21:13.006Z,101329.59
2022-08-22T23:23:48.073Z,101332.63
2022-08-22T23:26:20.785Z,101333.81
2022-08-22T23:28:53.566Z,101331.16
2022-08-22T23:31:37.951Z,101332.84
2022-08-22T23:34:13.954Z,101330.16
2022-08-22T23:36:48.652Z,101338.66
2022-08-22T23:39:24.466Z,101325.56
2022-08-22T23:41:58.306Z,101327.47
2022-08-22T23:44:33.050Z,101335.63
2022-08-22T23:47:07.752Z,101334.19
2022-08-22T23:49:41.900Z,101334.19
2022-08-22T23:52:15.305Z,101333.53
2022-08-22T23:54:54.293Z,101335.63
2022-08-22T23:57:29.448Z,101332.50
